sensor_id;sensor_type;location;lat;lon;timestamp;pressure;altitude;pressure_sealevel;temperature;humidity
61337;BME280;47212;41.326;2.104;2022-07-29T00:00:10;101270.38;;;27.44;68.73
61337;BME280;47212;41.326;2.104;2022-07-29T00:05:18;101273.81;;;27.38;69.02
61337;BME280;47212;41.326;2.104;2022-07-29T00:10:28;101263.38;;;27.35;69.07
61337;BME280;47212;41.326;2.104;2022-07-29T00:15:39;101243.34;;;27.33;69.07
61337;BME280;47212;41.326;2.104;2022-07-29T00:20:46;101250.84;;;27.28;69.45
61337;BME280;47212;41.326;2.104;2022-07-29T00:25:56;101257.16;;;27.25;69.25
61337;BME280;47212;41.326;2.104;2022-07-29T00:31:02;101246.72;;;27.22;69.33
61337;BME280;47212;41.326;2.104;2022-07-29T00:36:32;101247.44;;;27.19;69.81
61337;BME280;47212;41.326;2.104;2022-07-29T00:41:48;101241.84;;;27.19;69.64
61337;BME280;47212;41.326;2.104;2022-07-29T00:46:57;101233.03;;;27.17;69.66
61337;BME280;47212;41.326;2.104;2022-07-29T00:52:17;101225.34;;;27.14;69.84
61337;BME280;47212;41.326;2.104;2022-07-29T00:57:42;101225.28;;;27.11;69.72
61337;BME280;47212;41.326;2.104;2022-07-29T01:05:24;101221.94;;;27.05;70.38
61337;BME280;47212;41.326;2.104;2022-07-29T01:10:55;101220.31;;;27.04;70.41
61337;BME280;47212;41.326;2.104;2022-07-29T01:16:13;101217.53;;;27.04;70.40
61337;BME280;47212;41.326;2.104;2022-07-29T01:21:49;101211.13;;;27.04;70.18
61337;BME280;47212;41.326;2.104;2022-07-29T01:32:36;101197.91;;;27.01;70.58
61337;BME280;47212;41.326;2.104;2022-07-29T01:37:53;101185.09;;;27.00;70.47
61337;BME280;47212;41.326;2.104;2022-07-29T01:43:23;101178.22;;;26.97;70.65
61337;BME280;47212;41.326;2.104;2022-07-29T01:49:00;101177.31;;;26.93;71.07
61337;BME280;47212;41.326;2.104;2022-07-29T01:54:42;101175.72;;;26.92;71.07
61337;BME280;47212;41.326;2.104;2022-07-29T01:59:49;101166.06;;;26.89;70.88
61337;BME280;47212;41.326;2.104;2022-07-29T02:05:10;101172.47;;;26.90;71.20
61337;BME280;47212;41.326;2.104;2022-07-29T02:10:24;101170.03;;;26.88;71.19
61337;BME280;47212;41.326;2.104;2022-07-29T02:15:33;101167.13;;;26.85;71.19
61337;BME280;47212;41.326;2.104;2022-07-29T02:20:47;101167.41;;;26.80;70.95
61337;BME280;47212;41.326;2.104;2022-07-29T02:26:08;101171.19;;;26.72;71.04
61337;BME280;47212;41.326;2.104;2022-07-29T02:31:33;101166.25;;;26.65;71.38
61337;BME280;47212;41.326;2.104;2022-07-29T02:36:52;101180.56;;;26.63;71.20
61337;BME280;47212;41.326;2.104;2022-07-29T02:42:07;101169.22;;;26.56;71.63
61337;BME280;47212;41.326;2.104;2022-07-29T02:47:41;101175.78;;;26.48;72.09
61337;BME280;47212;41.326;2.104;2022-07-29T02:53:17;101173.28;;;26.43;72.23
61337;BME280;47212;41.326;2.104;2022-07-29T02:58:38;101173.63;;;26.42;72.12
61337;BME280;47212;41.326;2.104;2022-07-29T03:07:26;101179.13;;;26.38;71.93
61337;BME280;47212;41.326;2.104;2022-07-29T03:12:29;101185.06;;;26.37;72.17
61337;BME280;47212;41.326;2.104;2022-07-29T03:18:05;101184.97;;;26.33;72.40
61337;BME280;47212;41.326;2.104;2022-07-29T03:23:10;101180.53;;;26.32;72.81
61337;BME280;47212;41.326;2.104;2022-07-29T03:28:12;101178.91;;;26.31;72.76
61337;BME280;47212;41.326;2.104;2022-07-29T03:33:16;101180.53;;;26.32;72.58
61337;BME280;47212;41.326;2.104;2022-07-29T03:38:19;101180.19;;;26.33;72.54
61337;BME280;47212;41.326;2.104;2022-07-29T03:43:24;101175.78;;;26.32;72.56
61337;BME280;47212;41.326;2.104;2022-07-29T03:48:28;101175.78;;;26.32;72.60
61337;BME280;47212;41.326;2.104;2022-07-29T03:53:33;101175.31;;;26.30;72.52
61337;BME280;47212;41.326;2.104;2022-07-29T03:58:37;101173.69;;;26.29;72.39
61337;BME280;47212;41.326;2.104;2022-07-29T04:03:40;101165.22;;;26.26;72.33
61337;BME280;47212;41.326;2.104;2022-07-29T04:08:42;101158.81;;;26.25;72.43
61337;BME280;47212;41.326;2.104;2022-07-29T04:13:44;101158.38;;;26.23;72.47
61337;BME280;47212;41.326;2.104;2022-07-29T04:18:46;101157.09;;;26.21;72.41
61337;BME280;47212;41.326;2.104;2022-07-29T04:23:49;101168.63;;;26.19;72.56
61337;BME280;47212;41.326;2.104;2022-07-29T04:28:54;101169.00;;;26.18;72.41
61337;BME280;47212;41.326;2.104;2022-07-29T04:33:56;101181.69;;;26.15;72.22
61337;BME280;47212;41.326;2.104;2022-07-29T04:38:59;101185.53;;;26.11;72.43
61337;BME280;47212;41.326;2.104;2022-07-29T04:44:02;101197.41;;;26.08;72.32
61337;BME280;47212;41.326;2.104;2022-07-29T04:49:08;101200.47;;;26.02;72.14
61337;BME280;47212;41.326;2.104;2022-07-29T04:54:10;101201.13;;;25.99;72.08
61337;BME280;47212;41.326;2.104;2022-07-29T04:59:12;101210.66;;;25.98;72.16
61337;BME280;47212;41.326;2.104;2022-07-29T05:04:14;101222.44;;;25.92;72.34
61337;BME280;47212;41.326;2.104;2022-07-29T05:09:17;101221.53;;;25.88;72.46
61337;BME280;47212;41.326;2.104;2022-07-29T05:14:19;101230.25;;;25.86;72.84
61337;BME280;47212;41.326;2.104;2022-07-29T05:19:21;101237.91;;;25.89;72.93
61337;BME280;47212;41.326;2.104;2022-07-29T05:24:23;101249.50;;;25.91;73.11
61337;BME280;47212;41.326;2.104;2022-07-29T05:29:34;101245.75;;;25.99;72.90
61337;BME280;47212;41.326;2.104;2022-07-29T05:34:46;101241.50;;;26.02;72.32
61337;BME280;47212;41.326;2.104;2022-07-29T05:39:54;101259.50;;;26.05;72.63
61337;BME280;47212;41.326;2.104;2022-07-29T05:44:57;101262.38;;;26.08;72.53
61337;BME280;47212;41.326;2.104;2022-07-29T05:50:00;101262.13;;;26.13;72.33
61337;BME280;47212;41.326;2.104;2022-07-29T05:55:02;101261.53;;;26.20;72.04
61337;BME280;47212;41.326;2.104;2022-07-29T06:00:06;101264.50;;;26.27;71.80
61337;BME280;47212;41.326;2.104;2022-07-29T06:05:15;101275.91;;;26.34;71.83
61337;BME280;47212;41.326;2.104;2022-07-29T06:10:17;101274.94;;;26.42;71.66
61337;BME280;47212;41.326;2.104;2022-07-29T06:15:24;101276.19;;;26.45;71.35
61337;BME280;47212;41.326;2.104;2022-07-29T06:20:30;101277.09;;;26.49;71.55
61337;BME280;47212;41.326;2.104;2022-07-29T06:25:33;101280.44;;;26.54;71.45
61337;BME280;47212;41.326;2.104;2022-07-29T06:30:37;101290.53;;;26.59;71.20
61337;BME280;47212;41.326;2.104;2022-07-29T06:35:39;101278.38;;;26.67;71.15
61337;BME280;47212;41.326;2.104;2022-07-29T06:40:49;101277.41;;;26.75;71.11
61337;BME280;47212;41.326;2.104;2022-07-29T06:46:14;101289.22;;;26.84;70.96
61337;BME280;47212;41.326;2.104;2022-07-29T06:51:22;101287.44;;;26.92;70.67
61337;BME280;47212;41.326;2.104;2022-07-29T06:56:24;101301.16;;;26.97;70.65
61337;BME280;47212;41.326;2.104;2022-07-29T07:01:26;101298.91;;;27.03;70.23
61337;BME280;47212;41.326;2.104;2022-07-29T07:06:29;101307.31;;;27.18;70.46
61337;BME280;47212;41.326;2.104;2022-07-29T07:11:31;101298.09;;;27.34;69.72
61337;BME280;47212;41.326;2.104;2022-07-29T07:16:37;101301.31;;;27.51;69.62
61337;BME280;47212;41.326;2.104;2022-07-29T07:21:39;101296.16;;;27.69;68.89
61337;BME280;47212;41.326;2.104;2022-07-29T07:26:42;101300.63;;;27.89;68.34
61337;BME280;47212;41.326;2.104;2022-07-29T07:31:47;101307.13;;;28.13;67.84
61337;BME280;47212;41.326;2.104;2022-07-29T07:36:50;101305.97;;;28.33;67.85
61337;BME280;47212;41.326;2.104;2022-07-29T07:41:52;101309.34;;;28.42;67.69
61337;BME280;47212;41.326;2.104;2022-07-29T07:46:58;101311.34;;;28.61;66.28
61337;BME280;47212;41.326;2.104;2022-07-29T07:52:15;101320.38;;;28.74;66.26
61337;BME280;47212;41.326;2.104;2022-07-29T07:57:18;101316.63;;;28.85;65.49
61337;BME280;47212;41.326;2.104;2022-07-29T08:02:24;101318.28;;;28.90;64.64
61337;BME280;47212;41.326;2.104;2022-07-29T08:07:26;101322.09;;;29.01;64.63
61337;BME280;47212;41.326;2.104;2022-07-29T08:12:28;101317.78;;;29.07;64.69
61337;BME280;47212;41.326;2.104;2022-07-29T08:17:35;101308.38;;;29.19;63.82
61337;BME280;47212;41.326;2.104;2022-07-29T08:22:37;101296.78;;;29.21;63.20
61337;BME280;47212;41.326;2.104;2022-07-29T08:27:39;101311.19;;;29.19;63.25
61337;BME280;47212;41.326;2.104;2022-07-29T08:32:44;101328.44;;;29.21;63.57
61337;BME280;47212;41.326;2.104;2022-07-29T08:37:56;101333.97;;;29.17;63.11
61337;BME280;47212;41.326;2.104;2022-07-29T08:43:07;101341.09;;;29.11;61.66
61337;BME280;47212;41.326;2.104;2022-07-29T08:48:09;101340.97;;;29.04;61.42
61337;BME280;47212;41.326;2.104;2022-07-29T08:53:13;101337.72;;;29.02;62.62
61337;BME280;47212;41.326;2.104;2022-07-29T08:58:16;101334.88;;;28.99;63.55
61337;BME280;47212;41.326;2.104;2022-07-29T09:03:30;101356.84;;;28.97;63.14
61337;BME280;47212;41.326;2.104;2022-07-29T09:08:32;101353.06;;;29.08;63.08
61337;BME280;47212;41.326;2.104;2022-07-29T09:13:35;101351.38;;;29.04;62.72
61337;BME280;47212;41.326;2.104;2022-07-29T09:18:43;101349.81;;;29.06;62.15
61337;BME280;47212;41.326;2.104;2022-07-29T09:24:07;101365.50;;;29.11;60.57
61337;BME280;47212;41.326;2.104;2022-07-29T09:29:16;101373.34;;;29.25;62.09
61337;BME280;47212;41.326;2.104;2022-07-29T09:34:26;101368.88;;;29.43;62.17
61337;BME280;47212;41.326;2.104;2022-07-29T09:39:37;101369.38;;;29.71;60.40
61337;BME280;47212;41.326;2.104;2022-07-29T09:44:44;101370.47;;;29.93;60.23
61337;BME280;47212;41.326;2.104;2022-07-29T09:50:05;101371.41;;;30.01;59.61
61337;BME280;47212;41.326;2.104;2022-07-29T09:55:09;101370.09;;;30.21;58.70
61337;BME280;47212;41.326;2.104;2022-07-29T10:00:19;101365.53;;;30.39;59.81
61337;BME280;47212;41.326;2.104;2022-07-29T10:05:24;101361.28;;;30.53;59.23
61337;BME280;47212;41.326;2.104;2022-07-29T10:10:31;101355.44;;;30.65;57.79
61337;BME280;47212;41.326;2.104;2022-07-29T10:15:37;101355.59;;;30.79;57.90
61337;BME280;47212;41.326;2.104;2022-07-29T10:20:41;101350.00;;;30.83;58.77
61337;BME280;47212;41.326;2.104;2022-07-29T10:25:45;101355.59;;;30.79;59.27
61337;BME280;47212;41.326;2.104;2022-07-29T10:31:01;101360.00;;;30.80;58.68
61337;BME280;47212;41.326;2.104;2022-07-29T10:36:32;101354.09;;;30.92;57.85
61337;BME280;47212;41.326;2.104;2022-07-29T10:48:04;101350.94;;;30.97;57.69
61337;BME280;47212;41.326;2.104;2022-07-29T10:53:58;101363.41;;;31.00;58.51
61337;BME280;47212;41.326;2.104;2022-07-29T10:59:28;101366.69;;;31.05;58.24
61337;BME280;47212;41.326;2.104;2022-07-29T11:15:18;101366.28;;;31.44;59.11
61337;BME280;47212;41.326;2.104;2022-07-29T11:25:41;101373.81;;;31.33;59.36
61337;BME280;47212;41.326;2.104;2022-07-29T11:30:54;101389.59;;;31.08;60.84
61337;BME280;47212;41.326;2.104;2022-07-29T11:36:12;101385.34;;;30.84;62.98
61337;BME280;47212;41.326;2.104;2022-07-29T11:46:47;101396.38;;;30.66;64.20
61337;BME280;47212;41.326;2.104;2022-07-29T11:51:57;101395.97;;;30.64;63.86
61337;BME280;47212;41.326;2.104;2022-07-29T11:57:06;101394.91;;;30.46;64.44
61337;BME280;47212;41.326;2.104;2022-07-29T12:02:09;101399.06;;;30.29;64.70
61337;BME280;47212;41.326;2.104;2022-07-29T12:07:33;101400.88;;;30.14;65.34
61337;BME280;47212;41.326;2.104;2022-07-29T12:12:36;101399.47;;;30.01;66.30
61337;BME280;47212;41.326;2.104;2022-07-29T12:17:40;101399.34;;;29.94;66.59
61337;BME280;47212;41.326;2.104;2022-07-29T12:22:42;101405.91;;;30.01;66.86
61337;BME280;47212;41.326;2.104;2022-07-29T12:27:46;101413.41;;;30.20;66.57
61337;BME280;47212;41.326;2.104;2022-07-29T12:32:49;101425.53;;;30.28;65.96
61337;BME280;47212;41.326;2.104;2022-07-29T12:37:58;101426.03;;;30.33;65.70
61337;BME280;47212;41.326;2.104;2022-07-29T12:43:10;101428.34;;;30.28;65.37
61337;BME280;47212;41.326;2.104;2022-07-29T12:48:14;101436.53;;;30.10;65.47
61337;BME280;47212;41.326;2.104;2022-07-29T12:53:16;101427.44;;;29.94;65.30
61337;BME280;47212;41.326;2.104;2022-07-29T12:58:29;101434.75;;;29.75;64.90
61337;BME280;47212;41.326;2.104;2022-07-29T13:03:52;101432.78;;;29.53;65.27
61337;BME280;47212;41.326;2.104;2022-07-29T13:14:11;101440.84;;;29.35;64.07
61337;BME280;47212;41.326;2.104;2022-07-29T13:19:13;101440.66;;;29.25;64.55
61337;BME280;47212;41.326;2.104;2022-07-29T13:24:15;101438.03;;;29.12;63.68
61337;BME280;47212;41.326;2.104;2022-07-29T13:29:25;101446.00;;;29.10;63.82
61337;BME280;47212;41.326;2.104;2022-07-29T13:34:32;101439.03;;;29.24;63.84
61337;BME280;47212;41.326;2.104;2022-07-29T13:39:34;101428.88;;;29.38;63.08
61337;BME280;47212;41.326;2.104;2022-07-29T13:44:36;101440.34;;;29.49;63.26
61337;BME280;47212;41.326;2.104;2022-07-29T13:49:39;101438.72;;;29.48;62.29
61337;BME280;47212;41.326;2.104;2022-07-29T13:54:44;101431.91;;;29.49;61.96
61337;BME280;47212;41.326;2.104;2022-07-29T13:59:46;101426.13;;;29.42;61.06
61337;BME280;47212;41.326;2.104;2022-07-29T14:04:54;101443.44;;;29.44;60.86
61337;BME280;47212;41.326;2.104;2022-07-29T14:09:57;101437.97;;;29.32;60.15
61337;BME280;47212;41.326;2.104;2022-07-29T14:14:59;101432.22;;;29.44;60.63
61337;BME280;47212;41.326;2.104;2022-07-29T14:20:02;101416.41;;;29.55;60.14
61337;BME280;47212;41.326;2.104;2022-07-29T14:25:05;101419.00;;;29.67;59.89
61337;BME280;47212;41.326;2.104;2022-07-29T14:30:15;101410.69;;;29.74;58.78
61337;BME280;47212;41.326;2.104;2022-07-29T14:35:18;101424.72;;;29.74;59.55
61337;BME280;47212;41.326;2.104;2022-07-29T14:40:21;101419.06;;;29.71;59.90
61337;BME280;47212;41.326;2.104;2022-07-29T14:45:23;101407.88;;;29.74;59.85
61337;BME280;47212;41.326;2.104;2022-07-29T14:50:26;101407.47;;;29.72;58.81
61337;BME280;47212;41.326;2.104;2022-07-29T14:55:32;101393.25;;;29.62;58.96
61337;BME280;47212;41.326;2.104;2022-07-29T15:00:34;101395.16;;;29.54;58.97
61337;BME280;47212;41.326;2.104;2022-07-29T15:05:38;101389.91;;;29.53;58.86
61337;BME280;47212;41.326;2.104;2022-07-29T15:10:40;101388.66;;;29.50;58.07
61337;BME280;47212;41.326;2.104;2022-07-29T15:15:43;101384.53;;;29.44;57.74
61337;BME280;47212;41.326;2.104;2022-07-29T15:20:46;101381.63;;;29.40;57.44
61337;BME280;47212;41.326;2.104;2022-07-29T15:25:53;101401.13;;;29.33;56.40
61337;BME280;47212;41.326;2.104;2022-07-29T15:30:55;101408.75;;;29.33;57.48
61337;BME280;47212;41.326;2.104;2022-07-29T15:35:57;101385.50;;;29.32;57.20
61337;BME280;47212;41.326;2.104;2022-07-29T15:41:00;101363.00;;;29.29;57.32
61337;BME280;47212;41.326;2.104;2022-07-29T15:46:02;101376.59;;;29.27;57.43
61337;BME280;47212;41.326;2.104;2022-07-29T15:51:22;101423.00;;;29.24;57.86
61337;BME280;47212;41.326;2.104;2022-07-29T15:56:25;101468.63;;;29.21;58.19
61337;BME280;47212;41.326;2.104;2022-07-29T16:01:27;101488.34;;;29.05;58.14
61337;BME280;47212;41.326;2.104;2022-07-29T16:06:29;101481.84;;;29.01;57.78
61337;BME280;47212;41.326;2.104;2022-07-29T16:11:31;101473.75;;;28.96;57.44
61337;BME280;47212;41.326;2.104;2022-07-29T16:16:34;101494.47;;;28.92;56.79
61337;BME280;47212;41.326;2.104;2022-07-29T16:22:49;101491.16;;;28.86;56.05
61337;BME280;47212;41.326;2.104;2022-07-29T16:28:43;101501.63;;;28.89;55.41
61337;BME280;47212;41.326;2.104;2022-07-29T16:34:09;101496.31;;;28.84;54.90
61337;BME280;47212;41.326;2.104;2022-07-29T16:39:11;101477.41;;;28.81;55.08
61337;BME280;47212;41.326;2.104;2022-07-29T16:45:08;101474.00;;;28.72;55.29
61337;BME280;47212;41.326;2.104;2022-07-29T16:50:58;101443.56;;;28.70;55.29
61337;BME280;47212;41.326;2.104;2022-07-29T16:57:13;101374.47;;;28.78;55.42
61337;BME280;47212;41.326;2.104;2022-07-29T17:02:16;101375.34;;;28.82;55.33
61337;BME280;47212;41.326;2.104;2022-07-29T17:07:18;101370.22;;;28.84;55.70
61337;BME280;47212;41.326;2.104;2022-07-29T17:12:22;101370.22;;;28.84;55.65
61337;BME280;47212;41.326;2.104;2022-07-29T17:18:15;101371.84;;;28.85;56.02
61337;BME280;47212;41.326;2.104;2022-07-29T17:24:05;101385.03;;;28.84;56.33
61337;BME280;47212;41.326;2.104;2022-07-29T17:29:37;101375.81;;;28.84;56.86
61337;BME280;47212;41.326;2.104;2022-07-29T17:34:41;101386.44;;;28.94;56.51
61337;BME280;47212;41.326;2.104;2022-07-29T17:39:43;101411.41;;;29.03;56.41
61337;BME280;47212;41.326;2.104;2022-07-29T17:44:45;101418.25;;;29.05;56.51
61337;BME280;47212;41.326;2.104;2022-07-29T17:49:48;101411.47;;;29.06;56.54
61337;BME280;47212;41.326;2.104;2022-07-29T17:54:50;101420.19;;;29.01;56.87
61337;BME280;47212;41.326;2.104;2022-07-29T17:59:52;101435.31;;;28.97;57.20
61337;BME280;47212;41.326;2.104;2022-07-29T18:04:57;101440.72;;;28.86;57.81
61337;BME280;47212;41.326;2.104;2022-07-29T18:10:06;101438.03;;;28.74;57.79
61337;BME280;47212;41.326;2.104;2022-07-29T18:15:09;101434.28;;;28.66;58.20
61337;BME280;47212;41.326;2.104;2022-07-29T18:20:22;101429.69;;;28.58;58.60
61337;BME280;47212;41.326;2.104;2022-07-29T18:25:24;101431.97;;;28.52;58.94
61337;BME280;47212;41.326;2.104;2022-07-29T18:30:28;101445.53;;;28.50;59.12
61337;BME280;47212;41.326;2.104;2022-07-29T18:35:31;101445.09;;;28.48;59.74
61337;BME280;47212;41.326;2.104;2022-07-29T18:40:33;101443.00;;;28.45;59.49
61337;BME280;47212;41.326;2.104;2022-07-29T18:45:36;101460.09;;;28.40;59.60
61337;BME280;47212;41.326;2.104;2022-07-29T18:50:40;101475.66;;;28.38;60.04
61337;BME280;47212;41.326;2.104;2022-07-29T18:55:42;101488.38;;;28.35;59.80
61337;BME280;47212;41.326;2.104;2022-07-29T19:00:45;101484.34;;;28.33;59.97
61337;BME280;47212;41.326;2.104;2022-07-29T19:05:47;101469.06;;;28.30;59.97
61337;BME280;47212;41.326;2.104;2022-07-29T19:10:50;101475.41;;;28.27;60.39
61337;BME280;47212;41.326;2.104;2022-07-29T19:15:52;101494.56;;;28.25;60.10
61337;BME280;47212;41.326;2.104;2022-07-29T19:20:54;101503.66;;;28.22;60.21
61337;BME280;47212;41.326;2.104;2022-07-29T19:25:56;101518.38;;;28.19;60.52
61337;BME280;47212;41.326;2.104;2022-07-29T19:31:00;101520.72;;;28.17;60.72
61337;BME280;47212;41.326;2.104;2022-07-29T19:36:03;101527.06;;;28.14;61.71
61337;BME280;47212;41.326;2.104;2022-07-29T19:41:05;101534.56;;;28.10;62.37
61337;BME280;47212;41.326;2.104;2022-07-29T19:46:07;101526.72;;;28.00;63.01
61337;BME280;47212;41.326;2.104;2022-07-29T19:51:09;101529.59;;;27.87;62.96
61337;BME280;47212;41.326;2.104;2022-07-29T19:56:12;101529.41;;;27.80;63.40
61337;BME280;47212;41.326;2.104;2022-07-29T20:01:15;101526.16;;;27.78;63.52
61337;BME280;47212;41.326;2.104;2022-07-29T20:06:18;101552.31;;;27.70;63.14
61337;BME280;47212;41.326;2.104;2022-07-29T20:11:30;101573.16;;;27.73;63.14
61337;BME280;47212;41.326;2.104;2022-07-29T20:16:33;101562.69;;;27.70;63.05
61337;BME280;47212;41.326;2.104;2022-07-29T20:21:37;101578.19;;;27.67;62.31
61337;BME280;47212;41.326;2.104;2022-07-29T20:26:43;101579.50;;;27.57;62.06
61337;BME280;47212;41.326;2.104;2022-07-29T20:31:45;101588.25;;;27.56;61.85
61337;BME280;47212;41.326;2.104;2022-07-29T20:36:57;101590.31;;;27.59;61.87
61337;BME280;47212;41.326;2.104;2022-07-29T20:42:01;101584.72;;;27.59;61.39
61337;BME280;47212;41.326;2.104;2022-07-29T20:47:03;101594.19;;;27.54;61.10
61337;BME280;47212;41.326;2.104;2022-07-29T20:52:05;101594.66;;;27.56;61.26
61337;BME280;47212;41.326;2.104;2022-07-29T20:57:08;101609.56;;;27.60;61.30
61337;BME280;47212;41.326;2.104;2022-07-29T21:02:10;101604.78;;;27.61;61.73
61337;BME280;47212;41.326;2.104;2022-07-29T21:07:12;101598.13;;;27.66;61.63
61337;BME280;47212;41.326;2.104;2022-07-29T21:12:14;101608.97;;;27.67;62.25
61337;BME280;47212;41.326;2.104;2022-07-29T21:17:16;101610.50;;;27.65;63.06
61337;BME280;47212;41.326;2.104;2022-07-29T21:22:23;101604.09;;;27.64;63.35
61337;BME280;47212;41.326;2.104;2022-07-29T21:27:25;101612.47;;;27.64;63.92
61337;BME280;47212;41.326;2.104;2022-07-29T21:32:49;101607.25;;;27.63;64.04
61337;BME280;47212;41.326;2.104;2022-07-29T21:37:51;101615.16;;;27.60;64.06
61337;BME280;47212;41.326;2.104;2022-07-29T21:42:56;101607.00;;;27.55;64.05
61337;BME280;47212;41.326;2.104;2022-07-29T21:47:58;101612.03;;;27.50;64.11
61337;BME280;47212;41.326;2.104;2022-07-29T21:53:00;101604.47;;;27.50;64.59
61337;BME280;47212;41.326;2.104;2022-07-29T21:58:05;101613.66;;;27.51;64.33
61337;BME280;47212;41.326;2.104;2022-07-29T22:03:07;101611.22;;;27.49;64.17
61337;BME280;47212;41.326;2.104;2022-07-29T22:08:09;101609.59;;;27.48;64.24
61337;BME280;47212;41.326;2.104;2022-07-29T22:13:11;101619.53;;;27.46;63.92
61337;BME280;47212;41.326;2.104;2022-07-29T22:18:22;101627.09;;;27.45;63.82
61337;BME280;47212;41.326;2.104;2022-07-29T22:23:24;101627.91;;;27.46;63.89
61337;BME280;47212;41.326;2.104;2022-07-29T22:28:26;101628.97;;;27.41;63.72
61337;BME280;47212;41.326;2.104;2022-07-29T22:33:28;101624.09;;;27.38;63.51
61337;BME280;47212;41.326;2.104;2022-07-29T22:38:30;101629.59;;;27.35;63.49
61337;BME280;47212;41.326;2.104;2022-07-29T22:43:37;101633.44;;;27.30;63.52
61337;BME280;47212;41.326;2.104;2022-07-29T22:48:40;101647.78;;;27.28;63.54
61337;BME280;47212;41.326;2.104;2022-07-29T22:53:42;101662.91;;;27.27;63.62
61337;BME280;47212;41.326;2.104;2022-07-29T22:58:50;101658.13;;;27.28;63.46
61337;BME280;47212;41.326;2.104;2022-07-29T23:03:53;101651.28;;;27.25;63.50
61337;BME280;47212;41.326;2.104;2022-07-29T23:08:56;101653.16;;;27.21;63.47
61337;BME280;47212;41.326;2.104;2022-07-29T23:13:58;101647.00;;;27.16;63.31
61337;BME280;47212;41.326;2.104;2022-07-29T23:19:00;101643.38;;;27.15;63.07
61337;BME280;47212;41.326;2.104;2022-07-29T23:24:02;101636.16;;;27.14;63.24
61337;BME280;47212;41.326;2.104;2022-07-29T23:29:06;101634.53;;;27.13;63.14
61337;BME280;47212;41.326;2.104;2022-07-29T23:34:08;101637.69;;;27.12;63.13
61337;BME280;47212;41.326;2.104;2022-07-29T23:39:13;101630.00;;;27.09;62.79
61337;BME280;47212;41.326;2.104;2022-07-29T23:44:15;101627.22;;;27.09;62.79
61337;BME280;47212;41.326;2.104;2022-07-29T23:49:17;101622.34;;;27.06;62.79
61337;BME280;47212;41.326;2.104;2022-07-29T23:54:20;101626.28;;;27.05;62.62
61337;BME280;47212;41.326;2.104;2022-07-29T23:59:22;101618.25;;;27.03;62.87
